Time;durP1;ratioP1;P1;durP2;ratioP2;P2;SDS_P1;SDS_P2;PMS_P1;PMS_P2;Temp;Humidity;BMP_temperature;BMP_pressure;BME280_temperature;BME280_humidity;BME280_pressure;Samples;Min_cycle;Max_cycle;Signal;HPM_P1;HPM_P2
2022/08/09 00:01:31;;;;;;;0.10;0.10;;;;;;;;;;5060841;28;20044;-88
2022/08/09 00:03:57;;;;;;;0.00;0.00;;;;;;;;;;5051254;28;20041;-87
2022/08/09 00:06:24;;;;;;;0.10;0.10;;;;;;;;;;5053332;28;20036;-88
2022/08/09 00:08:50;;;;;;;0.05;0.05;;;;;;;;;;5078237;28;20097;-88
2022/08/09 00:11:16;;;;;;;0.10;0.10;;;;;;;;;;5063275;28;20508;-88
2022/08/09 00:13:43;;;;;;;0.00;0.00;;;;;;;;;;5062492;28;20096;-89
2022/08/09 00:16:09;;;;;;;0.10;0.10;;;;;;;;;;5061123;28;20485;-89
2022/08/09 00:18:51;;;;;;;0.10;0.10;;;;;;;;;;5061457;28;20122;-89
2022/08/09 00:21:17;;;;;;;0.10;0.10;;;;;;;;;;5057594;28;20052;-87
2022/08/09 00:23:44;;;;;;;0.10;0.10;;;;;;;;;;5049176;28;20108;-90
2022/08/09 00:26:12;;;;;;;0.10;0.10;;;;;;;;;;5051880;28;20042;-89
2022/08/09 00:28:38;;;;;;;0.10;0.10;;;;;;;;;;5057101;28;20032;-89
2022/08/09 00:31:05;;;;;;;0.10;0.10;;;;;;;;;;5049012;28;20455;-90
2022/08/09 00:33:31;;;;;;;0.10;0.10;;;;;;;;;;5045116;28;20043;-89
2022/08/09 00:35:59;;;;;;;0.20;0.20;;;;;;;;;;5056814;28;20048;-89
2022/08/09 00:38:25;;;;;;;0.10;0.10;;;;;;;;;;5060950;28;20036;-88
2022/08/09 00:40:52;;;;;;;0.00;0.00;;;;;;;;;;5049254;28;20051;-90
2022/08/09 00:43:18;;;;;;;0.20;0.20;;;;;;;;;;5060784;28;20119;-90
2022/08/09 00:45:44;;;;;;;0.15;0.15;;;;;;;;;;5060750;28;20511;-89
2022/08/09 00:48:11;;;;;;;0.17;0.17;;;;;;;;;;5077687;28;20172;-89
2022/08/09 00:50:37;;;;;;;0.10;0.10;;;;;;;;;;5077787;28;20032;-89
2022/08/09 00:53:03;;;;;;;0.10;0.10;;;;;;;;;;5061076;28;20036;-89
2022/08/09 00:55:29;;;;;;;0.30;0.30;;;;;;;;;;5077490;28;20489;-88
2022/08/09 00:57:55;;;;;;;0.10;0.10;;;;;;;;;;5061139;28;20558;-88
2022/08/09 01:00:21;;;;;;;0.10;0.10;;;;;;;;;;5077384;28;20044;-88
2022/08/09 01:02:48;;;;;;;0.10;0.10;;;;;;;;;;5063677;28;20557;-88
2022/08/09 01:05:14;;;;;;;0.10;0.10;;;;;;;;;;5081123;28;20075;-88
2022/08/09 01:08:01;;;;;;;0.00;0.00;;;;;;;;;;5064463;28;20062;-89
2022/08/09 01:10:30;;;;;;;0.10;0.10;;;;;;;;;;5080752;28;20032;-88
2022/08/09 01:13:03;;;;;;;0.10;0.10;;;;;;;;;;5064608;28;20040;-88
2022/08/09 01:15:33;;;;;;;0.10;0.10;;;;;;;;;;5080534;28;20457;-89
2022/08/09 01:18:04;;;;;;;0.10;0.10;;;;;;;;;;5080442;28;20039;-89
2022/08/09 01:20:44;;;;;;;0.20;0.20;;;;;;;;;;5047396;28;20142;-88
2022/08/09 01:23:16;;;;;;;0.10;0.10;;;;;;;;;;5063571;28;20054;-88
2022/08/09 01:26:01;;;;;;;0.10;0.10;;;;;;;;;;5063557;28;20050;-89
2022/08/09 01:28:27;;;;;;;0.10;0.10;;;;;;;;;;5064343;28;20032;-89
2022/08/09 01:30:55;;;;;;;0.20;0.20;;;;;;;;;;5063805;28;20075;-89
2022/08/09 01:33:23;;;;;;;0.10;0.10;;;;;;;;;;5062969;28;20075;-89
2022/08/09 01:36:09;;;;;;;0.00;0.00;;;;;;;;;;5062890;28;20042;-89
2022/08/09 01:38:36;;;;;;;0.20;0.20;;;;;;;;;;5062624;28;20048;-89
2022/08/09 01:41:08;;;;;;;0.10;0.10;;;;;;;;;;5063483;28;20067;-90
2022/08/09 01:43:35;;;;;;;0.00;0.00;;;;;;;;;;5063178;28;20059;-88
2022/08/09 01:46:02;;;;;;;0.05;0.05;;;;;;;;;;5047479;28;20047;-89
2022/08/09 01:48:28;;;;;;;0.10;0.10;;;;;;;;;;5063541;28;20040;-88
2022/08/09 01:50:54;;;;;;;0.10;0.10;;;;;;;;;;5079927;28;20492;-88
2022/08/09 01:53:24;;;;;;;0.10;0.10;;;;;;;;;;5063378;28;20435;-88
2022/08/09 01:55:52;;;;;;;0.10;0.10;;;;;;;;;;5080539;28;20032;-89
2022/08/09 01:58:18;;;;;;;0.20;0.20;;;;;;;;;;5052051;28;20047;-88
2022/08/09 02:00:44;;;;;;;0.10;0.10;;;;;;;;;;5058060;28;20036;-89
2022/08/09 02:03:11;;;;;;;0.10;0.10;;;;;;;;;;5078290;28;20054;-89
2022/08/09 02:05:37;;;;;;;0.17;0.17;;;;;;;;;;5063385;28;20047;-89
2022/08/09 02:08:05;;;;;;;0.10;0.10;;;;;;;;;;5063053;28;20036;-89
2022/08/09 02:10:39;;;;;;;0.17;0.17;;;;;;;;;;5061844;28;20049;-87
2022/08/09 02:13:06;;;;;;;0.10;0.10;;;;;;;;;;5062425;28;20044;-88
2022/08/09 02:15:34;;;;;;;0.10;0.10;;;;;;;;;;5059793;28;20056;-88
2022/08/09 02:18:02;;;;;;;0.20;0.20;;;;;;;;;;5063044;28;20405;-89
2022/08/09 02:20:28;;;;;;;0.10;0.10;;;;;;;;;;5079028;28;20040;-87
2022/08/09 02:23:15;;;;;;;0.05;0.05;;;;;;;;;;5050070;28;20153;-88
2022/08/09 02:25:43;;;;;;;0.10;0.10;;;;;;;;;;5046683;28;20063;-89
2022/08/09 02:28:12;;;;;;;0.10;0.10;;;;;;;;;;5062530;28;20036;-89
2022/08/09 02:30:44;;;;;;;0.20;0.20;;;;;;;;;;5064555;28;20040;-89
2022/08/09 02:33:13;;;;;;;0.20;0.20;;;;;;;;;;5060237;28;20076;-88
2022/08/09 02:35:40;;;;;;;0.20;0.20;;;;;;;;;;5050933;28;20043;-88
2022/08/09 02:38:09;;;;;;;0.10;0.10;;;;;;;;;;5057319;28;20043;-89
2022/08/09 02:40:36;;;;;;;0.10;0.10;;;;;;;;;;5063161;28;20071;-89
2022/08/09 02:43:03;;;;;;;0.10;0.10;;;;;;;;;;5057400;28;20173;-87
2022/08/09 02:45:32;;;;;;;0.15;0.15;;;;;;;;;;5058838;28;20036;-88
2022/08/09 02:48:00;;;;;;;0.10;0.10;;;;;;;;;;5053963;28;20044;-87
2022/08/09 02:50:28;;;;;;;0.03;0.03;;;;;;;;;;5059782;28;20046;-89
2022/08/09 02:52:57;;;;;;;0.10;0.10;;;;;;;;;;5062159;28;20071;-89
2022/08/09 02:55:25;;;;;;;0.10;0.10;;;;;;;;;;5079326;28;20043;-89
2022/08/09 02:57:51;;;;;;;0.10;0.10;;;;;;;;;;5079019;28;20040;-88
2022/08/09 03:00:18;;;;;;;0.20;0.20;;;;;;;;;;5061605;28;20075;-88
2022/08/09 03:02:50;;;;;;;0.10;0.10;;;;;;;;;;5078604;28;20040;-89
2022/08/09 03:05:17;;;;;;;0.20;0.20;;;;;;;;;;5061974;28;20118;-88
2022/08/09 03:07:43;;;;;;;0.08;0.08;;;;;;;;;;5078412;28;20078;-88
2022/08/09 03:10:09;;;;;;;0.15;0.15;;;;;;;;;;5061986;28;20044;-89
2022/08/09 03:12:36;;;;;;;0.10;0.10;;;;;;;;;;5061515;28;20039;-89
2022/08/09 03:15:03;;;;;;;0.00;0.00;;;;;;;;;;5062213;28;20044;-89
2022/08/09 03:17:30;;;;;;;0.20;0.20;;;;;;;;;;5061897;28;20036;-88
2022/08/09 03:19:59;;;;;;;0.10;0.10;;;;;;;;;;5078415;28;20067;-89
2022/08/09 03:22:27;;;;;;;0.10;0.10;;;;;;;;;;5077469;28;20043;-89
2022/08/09 03:24:53;;;;;;;0.10;0.10;;;;;;;;;;5060981;28;20130;-88
2022/08/09 03:27:20;;;;;;;0.10;0.10;;;;;;;;;;5078413;28;20036;-89
2022/08/09 03:29:46;;;;;;;0.08;0.08;;;;;;;;;;5061920;28;20105;-90
2022/08/09 03:32:13;;;;;;;0.10;0.10;;;;;;;;;;5066248;28;20036;-89
2022/08/09 03:34:39;;;;;;;0.20;0.20;;;;;;;;;;5059496;28;20535;-89
2022/08/09 03:37:05;;;;;;;0.10;0.10;;;;;;;;;;5061676;28;20043;-87
2022/08/09 03:39:31;;;;;;;0.10;0.10;;;;;;;;;;5079895;28;20052;-89
2022/08/09 03:41:57;;;;;;;0.20;0.20;;;;;;;;;;5062741;28;20040;-89
2022/08/09 03:44:24;;;;;;;0.10;0.10;;;;;;;;;;5069923;28;20040;-89
2022/08/09 03:46:51;;;;;;;0.10;0.10;;;;;;;;;;5056220;28;20496;-88
2022/08/09 03:49:18;;;;;;;0.10;0.10;;;;;;;;;;5079689;28;20036;-89
2022/08/09 03:51:45;;;;;;;0.00;0.00;;;;;;;;;;5063449;28;20085;-89
2022/08/09 03:54:11;;;;;;;0.10;0.10;;;;;;;;;;5059732;28;20040;-89
2022/08/09 03:56:39;;;;;;;0.10;0.10;;;;;;;;;;5080136;28;20044;-90
2022/08/09 03:59:05;;;;;;;0.10;0.10;;;;;;;;;;5056317;28;20115;-92
2022/08/09 04:01:31;;;;;;;0.00;0.00;;;;;;;;;;5081410;28;20613;-91
2022/08/09 04:03:58;;;;;;;0.10;0.10;;;;;;;;;;5071711;28;20404;-91
2022/08/09 04:06:24;;;;;;;0.03;0.03;;;;;;;;;;5063471;28;20040;-90
2022/08/09 04:08:50;;;;;;;0.10;0.10;;;;;;;;;;5064136;28;20095;-90
2022/08/09 04:11:16;;;;;;;0.10;0.10;;;;;;;;;;5081749;28;20093;-90
2022/08/09 04:13:42;;;;;;;0.10;0.10;;;;;;;;;;5064952;28;20040;-91
2022/08/09 04:16:08;;;;;;;0.10;0.10;;;;;;;;;;5060681;28;20052;-90
2022/08/09 04:18:34;;;;;;;0.10;0.10;;;;;;;;;;5059258;28;20071;-91
2022/08/09 04:21:00;;;;;;;0.00;0.00;;;;;;;;;;5040603;28;20071;-90
2022/08/09 04:23:28;;;;;;;6.88;2.58;;;;;;;;;;5061225;28;20039;-89
2022/08/09 04:25:55;;;;;;;0.25;0.25;;;;;;;;;;5061482;28;20040;-90
2022/08/09 04:28:22;;;;;;;0.10;0.10;;;;;;;;;;5061511;28;20166;-89
2022/08/09 04:30:48;;;;;;;0.10;0.10;;;;;;;;;;5061393;28;20056;-89
2022/08/09 04:33:14;;;;;;;0.10;0.10;;;;;;;;;;5061321;28;20044;-89
2022/08/09 04:35:41;;;;;;;0.20;0.20;;;;;;;;;;5061516;28;20072;-89
2022/08/09 04:38:07;;;;;;;0.10;0.10;;;;;;;;;;5077110;28;20044;-89
2022/08/09 04:40:48;;;;;;;0.00;0.00;;;;;;;;;;5060813;28;20044;-90
2022/08/09 04:43:16;;;;;;;0.20;0.20;;;;;;;;;;5059731;28;20036;-89
2022/08/09 04:45:43;;;;;;;0.10;0.10;;;;;;;;;;5062457;28;20083;-90
2022/08/09 04:48:09;;;;;;;0.10;0.10;;;;;;;;;;5061513;28;20034;-90
2022/08/09 04:50:36;;;;;;;0.03;0.03;;;;;;;;;;5062105;28;20063;-90
2022/08/09 04:53:06;;;;;;;0.10;0.10;;;;;;;;;;5062151;28;20036;-89
2022/08/09 04:55:33;;;;;;;0.15;0.15;;;;;;;;;;5078250;28;20039;-89
2022/08/09 04:57:59;;;;;;;0.10;0.10;;;;;;;;;;5061248;28;20047;-89
2022/08/09 05:00:25;;;;;;;0.10;0.10;;;;;;;;;;5060341;28;20036;-89
2022/08/09 05:02:51;;;;;;;0.10;0.10;;;;;;;;;;5077788;28;20036;-88
2022/08/09 05:05:18;;;;;;;0.10;0.10;;;;;;;;;;5061216;28;20032;-89
2022/08/09 05:07:44;;;;;;;0.10;0.10;;;;;;;;;;5061089;28;20031;-89
2022/08/09 05:10:11;;;;;;;0.10;0.10;;;;;;;;;;5078506;28;20074;-89
2022/08/09 05:12:37;;;;;;;0.05;0.05;;;;;;;;;;5060714;28;20071;-89
2022/08/09 05:15:04;;;;;;;0.20;0.20;;;;;;;;;;5078404;28;20040;-89
2022/08/09 05:17:30;;;;;;;0.10;0.10;;;;;;;;;;5077668;28;20036;-88
2022/08/09 05:19:56;;;;;;;0.10;0.10;;;;;;;;;;5060965;28;20040;-88
2022/08/09 05:22:22;;;;;;;0.10;0.10;;;;;;;;;;5061790;28;20028;-89
2022/08/09 05:24:48;;;;;;;0.08;0.08;;;;;;;;;;5055683;28;20047;-90
2022/08/09 05:27:14;;;;;;;0.17;0.17;;;;;;;;;;5060712;28;20063;-89
2022/08/09 05:29:41;;;;;;;0.10;0.10;;;;;;;;;;5061419;28;20101;-89
2022/08/09 05:32:07;;;;;;;0.10;0.10;;;;;;;;;;5052581;28;20122;-89
2022/08/09 05:34:33;;;;;;;0.10;0.10;;;;;;;;;;5056190;28;20063;-89
2022/08/09 05:37:01;;;;;;;0.10;0.10;;;;;;;;;;5061480;28;20036;-89
2022/08/09 05:39:27;;;;;;;0.10;0.10;;;;;;;;;;5046184;28;20089;-89
2022/08/09 05:41:53;;;;;;;0.10;0.10;;;;;;;;;;5061779;28;20043;-89
2022/08/09 05:44:20;;;;;;;0.10;0.10;;;;;;;;;;5054162;28;20036;-89
2022/08/09 05:46:45;;;;;;;0.10;0.10;;;;;;;;;;5061304;28;20036;-90
2022/08/09 05:49:12;;;;;;;0.10;0.10;;;;;;;;;;5062100;28;20117;-88
2022/08/09 05:51:38;;;;;;;0.00;0.00;;;;;;;;;;5064377;28;20078;-89
2022/08/09 05:54:04;;;;;;;0.10;0.10;;;;;;;;;;5058802;28;20042;-89
2022/08/09 05:56:30;;;;;;;0.10;0.10;;;;;;;;;;5061043;28;20564;-89
2022/08/09 05:58:56;;;;;;;0.10;0.10;;;;;;;;;;5080767;28;20044;-88
2022/08/09 06:01:29;;;;;;;0.20;0.20;;;;;;;;;;5064140;28;20093;-89
2022/08/09 06:03:57;;;;;;;0.10;0.10;;;;;;;;;;5046281;28;20312;-87
2022/08/09 06:06:24;;;;;;;0.10;0.10;;;;;;;;;;5063371;28;20039;-88
2022/08/09 06:08:50;;;;;;;0.08;0.08;;;;;;;;;;5065431;28;20032;-90
2022/08/09 06:11:16;;;;;;;0.10;0.10;;;;;;;;;;5063074;28;20318;-86
2022/08/09 06:13:43;;;;;;;0.20;0.20;;;;;;;;;;5077890;28;20545;-86
2022/08/09 06:16:09;;;;;;;0.13;0.13;;;;;;;;;;5061202;28;20040;-85
2022/08/09 06:18:36;;;;;;;0.05;0.05;;;;;;;;;;5061723;28;20382;-86
2022/08/09 06:21:03;;;;;;;0.10;0.10;;;;;;;;;;5048389;28;20051;-87
2022/08/09 06:23:30;;;;;;;0.20;0.20;;;;;;;;;;5061601;28;20043;-86
2022/08/09 06:25:56;;;;;;;0.10;0.10;;;;;;;;;;5061183;28;20115;-87
2022/08/09 06:28:22;;;;;;;0.10;0.10;;;;;;;;;;5078175;28;20039;-86
2022/08/09 06:30:48;;;;;;;0.08;0.08;;;;;;;;;;5054354;28;20044;-85
2022/08/09 06:33:14;;;;;;;0.00;0.00;;;;;;;;;;5074216;28;20032;-86
2022/08/09 06:35:40;;;;;;;0.00;0.00;;;;;;;;;;5061477;28;20047;-85
2022/08/09 06:38:06;;;;;;;0.13;0.13;;;;;;;;;;5047462;28;20040;-85
2022/08/09 06:40:37;;;;;;;0.10;0.10;;;;;;;;;;5078216;28;20040;-84
2022/08/09 06:43:03;;;;;;;0.10;0.10;;;;;;;;;;5069964;28;20051;-84
2022/08/09 06:45:29;;;;;;;0.00;0.00;;;;;;;;;;5048044;28;20397;-84
2022/08/09 06:47:55;;;;;;;0.10;0.10;;;;;;;;;;5058766;28;20051;-85
2022/08/09 06:50:21;;;;;;;0.10;0.10;;;;;;;;;;5055799;28;20044;-85
2022/08/09 06:52:49;;;;;;;0.20;0.20;;;;;;;;;;5053584;28;20055;-84
2022/08/09 06:55:17;;;;;;;0.05;0.05;;;;;;;;;;5077425;28;20516;-85
2022/08/09 06:57:44;;;;;;;0.10;0.10;;;;;;;;;;5061656;28;20488;-88
2022/08/09 07:00:11;;;;;;;0.00;0.00;;;;;;;;;;5061670;28;20520;-86
2022/08/09 07:02:37;;;;;;;0.10;0.10;;;;;;;;;;5059279;28;20032;-86
2022/08/09 07:05:06;;;;;;;0.08;0.08;;;;;;;;;;5044317;28;20078;-85
2022/08/09 07:07:32;;;;;;;0.05;0.05;;;;;;;;;;5060324;28;20044;-83
2022/08/09 07:09:58;;;;;;;0.00;0.00;;;;;;;;;;5077203;28;20639;-83
2022/08/09 07:12:27;;;;;;;0.00;0.00;;;;;;;;;;5067904;28;20380;-84
2022/08/09 07:14:54;;;;;;;0.17;0.17;;;;;;;;;;5059910;28;20492;-86
2022/08/09 07:17:20;;;;;;;0.10;0.10;;;;;;;;;;5070150;28;20045;-85
2022/08/09 07:19:46;;;;;;;0.08;0.08;;;;;;;;;;5076297;28;20040;-85
2022/08/09 07:22:12;;;;;;;0.00;0.00;;;;;;;;;;5071014;28;20047;-86
2022/08/09 07:24:38;;;;;;;0.10;0.10;;;;;;;;;;5045980;28;20066;-86
2022/08/09 07:27:05;;;;;;;0.00;0.00;;;;;;;;;;5046860;28;20035;-87
2022/08/09 07:29:31;;;;;;;0.10;0.10;;;;;;;;;;5053215;28;20079;-87
2022/08/09 07:31:59;;;;;;;0.17;0.17;;;;;;;;;;5060641;28;20039;-86
2022/08/09 07:34:25;;;;;;;0.00;0.00;;;;;;;;;;5058645;28;20401;-86
2022/08/09 07:36:51;;;;;;;0.20;0.20;;;;;;;;;;5060253;28;20035;-86
2022/08/09 07:39:17;;;;;;;0.63;0.63;;;;;;;;;;5077084;28;20036;-86
2022/08/09 07:41:43;;;;;;;0.52;0.52;;;;;;;;;;5059845;28;20063;-86
2022/08/09 07:44:09;;;;;;;0.10;0.10;;;;;;;;;;5052903;28;20410;-89
2022/08/09 07:46:35;;;;;;;0.10;0.10;;;;;;;;;;5053981;28;20066;-86
2022/08/09 07:49:01;;;;;;;0.00;0.00;;;;;;;;;;5058116;28;20486;-87
2022/08/09 07:51:27;;;;;;;0.00;0.00;;;;;;;;;;5044582;28;20036;-86
2022/08/09 07:53:53;;;;;;;0.00;0.00;;;;;;;;;;5054373;28;20552;-85
2022/08/09 07:56:21;;;;;;;0.00;0.00;;;;;;;;;;5060015;28;20039;-86
2022/08/09 07:58:47;;;;;;;0.10;0.10;;;;;;;;;;5060378;28;20036;-82
2022/08/09 08:01:13;;;;;;;0.10;0.10;;;;;;;;;;5059282;28;20458;-84
2022/08/09 08:03:39;;;;;;;0.10;0.10;;;;;;;;;;5058238;28;20123;-83
2022/08/09 08:06:06;;;;;;;0.00;0.00;;;;;;;;;;5058836;28;20093;-84
2022/08/09 08:08:32;;;;;;;0.10;0.10;;;;;;;;;;5059213;28;20047;-84
2022/08/09 08:10:58;;;;;;;0.00;0.00;;;;;;;;;;5058585;28;20047;-83
2022/08/09 08:13:24;;;;;;;0.10;0.10;;;;;;;;;;5052624;28;20040;-84
2022/08/09 08:15:50;;;;;;;0.00;0.00;;;;;;;;;;5075615;28;20051;-83
2022/08/09 08:18:16;;;;;;;0.20;0.20;;;;;;;;;;5059121;28;20043;-84
2022/08/09 08:20:42;;;;;;;0.10;0.10;;;;;;;;;;5058922;28;20558;-86
2022/08/09 08:23:08;;;;;;;0.00;0.00;;;;;;;;;;5075965;28;20075;-87
2022/08/09 08:25:34;;;;;;;0.00;0.00;;;;;;;;;;5059314;28;20090;-84
2022/08/09 08:28:01;;;;;;;0.10;0.10;;;;;;;;;;5075731;28;20054;-84
2022/08/09 08:30:27;;;;;;;0.08;0.08;;;;;;;;;;5043465;28;20416;-86
2022/08/09 08:32:53;;;;;;;0.08;0.08;;;;;;;;;;5075915;28;20043;-86
2022/08/09 08:35:19;;;;;;;0.00;0.00;;;;;;;;;;5059296;28;20044;-90
2022/08/09 08:37:47;;;;;;;0.10;0.10;;;;;;;;;;5062314;28;20067;-87
2022/08/09 08:40:13;;;;;;;0.00;0.00;;;;;;;;;;5053651;28;20051;-88
2022/08/09 08:42:43;;;;;;;0.10;0.10;;;;;;;;;;5057179;28;20063;-91
2022/08/09 08:45:10;;;;;;;0.20;0.20;;;;;;;;;;5059926;28;20115;-88
2022/08/09 08:47:36;;;;;;;0.10;0.10;;;;;;;;;;5062935;28;20036;-87
2022/08/09 08:50:02;;;;;;;0.10;0.10;;;;;;;;;;5062814;28;20075;-88
2022/08/09 08:52:29;;;;;;;0.10;0.10;;;;;;;;;;5077475;28;20062;-88
2022/08/09 08:54:56;;;;;;;0.10;0.10;;;;;;;;;;5060208;28;20032;-86
2022/08/09 08:57:23;;;;;;;0.10;0.10;;;;;;;;;;5060528;28;20040;-88
2022/08/09 08:59:50;;;;;;;0.10;0.10;;;;;;;;;;5059852;28;20096;-87
2022/08/09 09:02:29;;;;;;;0.00;0.00;;;;;;;;;;5052822;28;20592;-88
2022/08/09 09:04:58;;;;;;;0.10;0.10;;;;;;;;;;5055055;28;20658;-87
2022/08/09 09:07:25;;;;;;;0.10;0.10;;;;;;;;;;5048187;28;20124;-87
2022/08/09 09:09:52;;;;;;;0.03;0.03;;;;;;;;;;5052346;28;20036;-89
2022/08/09 09:12:20;;;;;;;0.00;0.00;;;;;;;;;;5067378;28;20040;-87
2022/08/09 09:14:47;;;;;;;0.00;0.00;;;;;;;;;;5043470;28;20036;-88
2022/08/09 09:17:13;;;;;;;0.10;0.10;;;;;;;;;;5053443;28;20039;-89
2022/08/09 09:19:39;;;;;;;0.00;0.00;;;;;;;;;;5048982;28;20036;-87
2022/08/09 09:22:06;;;;;;;0.00;0.00;;;;;;;;;;5048507;28;20619;-88
2022/08/09 09:24:33;;;;;;;0.05;0.05;;;;;;;;;;5056767;28;20050;-90
2022/08/09 09:27:01;;;;;;;0.10;0.10;;;;;;;;;;5056025;28;20067;-90
2022/08/09 09:29:28;;;;;;;0.00;0.00;;;;;;;;;;5056148;28;20037;-87
2022/08/09 09:31:54;;;;;;;0.03;0.03;;;;;;;;;;5049539;28;20451;-87
2022/08/09 09:34:20;;;;;;;0.10;0.10;;;;;;;;;;5055307;28;20390;-86
2022/08/09 09:36:46;;;;;;;0.10;0.10;;;;;;;;;;5056766;28;20044;-89
2022/08/09 09:39:12;;;;;;;0.10;0.10;;;;;;;;;;5061997;28;20047;-88
2022/08/09 09:41:40;;;;;;;0.10;0.10;;;;;;;;;;5058897;28;20044;-89
2022/08/09 09:44:07;;;;;;;0.00;0.00;;;;;;;;;;5066181;28;20036;-88
2022/08/09 09:46:35;;;;;;;0.00;0.00;;;;;;;;;;5064307;28;20032;-87
2022/08/09 09:49:03;;;;;;;0.00;0.00;;;;;;;;;;5057724;28;20096;-87
2022/08/09 09:51:29;;;;;;;0.00;0.00;;;;;;;;;;5047806;28;20041;-84
2022/08/09 09:54:09;;;;;;;0.00;0.00;;;;;;;;;;5053761;28;20043;-85
2022/08/09 09:56:36;;;;;;;0.00;0.00;;;;;;;;;;5050242;28;20563;-88
2022/08/09 09:59:02;;;;;;;0.10;0.10;;;;;;;;;;5050604;28;20623;-88
2022/08/09 10:01:29;;;;;;;0.00;0.00;;;;;;;;;;5058942;28;20097;-86
2022/08/09 10:04:24;;;;;;;0.00;0.00;;;;;;;;;;5070964;28;20503;-89
2022/08/09 10:06:55;;;;;;;0.03;0.03;;;;;;;;;;5047209;28;20045;-90
2022/08/09 10:09:28;;;;;;;0.10;0.10;;;;;;;;;;5054657;28;20095;-88
2022/08/09 10:12:14;;;;;;;0.10;0.10;;;;;;;;;;5060921;28;20050;-90
2022/08/09 10:14:40;;;;;;;0.00;0.00;;;;;;;;;;5060319;28;20043;-90
2022/08/09 10:17:13;;;;;;;0.10;0.10;;;;;;;;;;5061572;28;20040;-91
2022/08/09 10:19:39;;;;;;;0.00;0.00;;;;;;;;;;5058927;28;20371;-92
2022/08/09 10:22:05;;;;;;;0.00;0.00;;;;;;;;;;5065846;28;20060;-91
2022/08/09 10:24:32;;;;;;;0.00;0.00;;;;;;;;;;5066012;28;20036;-93
2022/08/09 10:26:58;;;;;;;0.00;0.00;;;;;;;;;;5061137;28;20032;-91
2022/08/09 10:29:30;;;;;;;0.00;0.00;;;;;;;;;;5041670;28;20032;-93
2022/08/09 10:31:56;;;;;;;0.00;0.00;;;;;;;;;;5057773;28;20044;-91
2022/08/09 10:34:23;;;;;;;0.05;0.05;;;;;;;;;;5060733;28;20059;-93
2022/08/09 10:36:55;;;;;;;0.05;0.05;;;;;;;;;;5052941;28;20040;-92
2022/08/09 10:39:26;;;;;;;0.00;0.00;;;;;;;;;;5090253;28;20044;-92
2022/08/09 10:42:25;;;;;;;0.00;0.00;;;;;;;;;;5059431;28;20043;-91
2022/08/09 10:44:56;;;;;;;0.00;0.00;;;;;;;;;;5060882;28;20051;-90
2022/08/09 10:47:29;;;;;;;0.00;0.00;;;;;;;;;;5079006;28;20047;-92
2022/08/09 10:50:03;;;;;;;0.10;0.10;;;;;;;;;;5065552;28;20036;-92
2022/08/09 10:52:44;;;;;;;0.00;0.00;;;;;;;;;;5065895;28;20393;-92
2022/08/09 10:55:24;;;;;;;0.10;0.10;;;;;;;;;;5061252;28;20048;-91
2022/08/09 10:57:51;;;;;;;0.00;0.00;;;;;;;;;;5048517;28;20046;-92
2022/08/09 11:00:32;;;;;;;0.00;0.00;;;;;;;;;;5069180;28;20032;-93
2022/08/09 11:03:00;;;;;;;0.20;0.20;;;;;;;;;;5063215;28;20032;-92
2022/08/09 11:05:28;;;;;;;0.20;0.20;;;;;;;;;;5059799;28;20551;-92
2022/08/09 11:07:54;;;;;;;0.00;0.00;;;;;;;;;;5058177;28;20036;-92
2022/08/09 11:10:52;;;;;;;0.10;0.10;;;;;;;;;;5052895;28;20052;-91
2022/08/09 11:13:19;;;;;;;4.18;2.72;;;;;;;;;;5013718;28;20048;-94
2022/08/09 11:15:45;;;;;;;0.00;0.00;;;;;;;;;;5065679;28;20048;-94
2022/08/09 11:18:32;;;;;;;0.10;0.10;;;;;;;;;;5066805;28;20049;-95
2022/08/09 11:21:04;;;;;;;0.08;0.08;;;;;;;;;;5063258;28;20062;-93
2022/08/09 11:23:53;;;;;;;0.00;0.00;;;;;;;;;;5083580;28;20073;-93
2022/08/09 11:26:38;;;;;;;0.00;0.00;;;;;;;;;;5063405;28;20611;-90
2022/08/09 11:29:04;;;;;;;0.03;0.03;;;;;;;;;;5078997;28;20127;-88
2022/08/09 11:31:44;;;;;;;0.10;0.10;;;;;;;;;;5063266;28;20043;-89
2022/08/09 11:34:35;;;;;;;0.20;0.20;;;;;;;;;;5058109;28;20033;-87
2022/08/09 11:37:02;;;;;;;0.10;0.10;;;;;;;;;;5059687;28;20516;-92
2022/08/09 11:39:28;;;;;;;0.10;0.10;;;;;;;;;;5062702;28;20079;-89
2022/08/09 11:41:54;;;;;;;0.10;0.10;;;;;;;;;;5076808;28;20085;-91
2022/08/09 11:44:40;;;;;;;0.00;0.00;;;;;;;;;;5064184;28;20446;-92
2022/08/09 11:47:07;;;;;;;0.03;0.03;;;;;;;;;;5058414;28;20067;-91
2022/08/09 11:49:52;;;;;;;0.03;0.03;;;;;;;;;;5064825;28;20032;-92
2022/08/09 11:52:26;;;;;;;0.00;0.00;;;;;;;;;;5083245;28;20086;-92
2022/08/09 11:55:12;;;;;;;0.10;0.10;;;;;;;;;;5079888;28;20048;-93
2022/08/09 11:57:43;;;;;;;0.10;0.10;;;;;;;;;;5078353;28;20048;-92
2022/08/09 12:00:09;;;;;;;0.00;0.00;;;;;;;;;;5062142;28;20048;-90
2022/08/09 12:02:38;;;;;;;0.05;0.05;;;;;;;;;;5062376;28;20051;-87
2022/08/09 12:05:04;;;;;;;0.10;0.10;;;;;;;;;;5059840;28;20032;-88
2022/08/09 12:07:30;;;;;;;0.10;0.10;;;;;;;;;;5060317;28;20040;-88
2022/08/09 12:09:59;;;;;;;0.10;0.10;;;;;;;;;;5060799;28;20039;-88
2022/08/09 12:12:32;;;;;;;0.00;0.00;;;;;;;;;;5062046;28;20034;-90
2022/08/09 12:14:58;;;;;;;0.10;0.10;;;;;;;;;;5058752;28;20032;-89
2022/08/09 12:17:24;;;;;;;0.10;0.10;;;;;;;;;;5076078;28;20108;-87
2022/08/09 12:19:50;;;;;;;0.10;0.10;;;;;;;;;;5060761;28;20068;-88
2022/08/09 12:22:19;;;;;;;0.08;0.08;;;;;;;;;;5062051;28;20043;-86
2022/08/09 12:24:45;;;;;;;0.17;0.17;;;;;;;;;;5047693;28;20039;-90
2022/08/09 12:27:19;;;;;;;0.10;0.10;;;;;;;;;;5062937;28;20029;-90
2022/08/09 12:29:53;;;;;;;0.10;0.10;;;;;;;;;;5054283;28;20032;-93
2022/08/09 12:32:19;;;;;;;;;;;;;;;;;;5061501;28;20068;-96
2022/08/09 12:34:45;;;;;;;0.00;0.00;;;;;;;;;;5054121;28;19927;-93
2022/08/09 12:37:11;;;;;;;0.10;0.10;;;;;;;;;;5079189;28;20054;-94
2022/08/09 12:39:41;;;;;;;0.10;0.10;;;;;;;;;;5061730;28;20547;-93
2022/08/09 12:42:13;;;;;;;0.08;0.08;;;;;;;;;;5058950;28;20040;-91
2022/08/09 12:44:39;;;;;;;0.10;0.10;;;;;;;;;;5068492;28;20040;-91
2022/08/09 12:47:06;;;;;;;0.00;0.00;;;;;;;;;;5058774;28;20047;-91
2022/08/09 12:49:39;;;;;;;0.00;0.00;;;;;;;;;;5064476;28;20055;-92
2022/08/09 12:52:08;;;;;;;0.10;0.10;;;;;;;;;;5046795;28;20068;-90
2022/08/09 12:55:01;;;;;;;0.03;0.03;;;;;;;;;;5064617;28;20043;-90
2022/08/09 12:57:43;;;;;;;0.10;0.10;;;;;;;;;;5051847;28;20084;-91
2022/08/09 13:00:11;;;;;;;0.10;0.10;;;;;;;;;;5081755;28;20086;-89
2022/08/09 13:02:57;;;;;;;0.03;0.03;;;;;;;;;;5075776;28;20047;-89
2022/08/09 13:05:24;;;;;;;0.00;0.00;;;;;;;;;;5066379;28;20492;-89
2022/08/09 13:08:09;;;;;;;0.10;0.10;;;;;;;;;;5067671;28;20051;-89
2022/08/09 13:10:54;;;;;;;0.00;0.00;;;;;;;;;;5084155;28;20047;-88
2022/08/09 13:13:44;;;;;;;0.00;0.00;;;;;;;;;;5070501;28;20055;-91
2022/08/09 13:16:15;;;;;;;27.13;22.63;;;;;;;;;;5074984;28;20089;-92
2022/08/09 13:18:42;;;;;;;0.00;0.00;;;;;;;;;;5071585;28;20043;-92
2022/08/09 13:21:22;;;;;;;0.00;0.00;;;;;;;;;;5071234;28;20047;-92
2022/08/09 13:23:48;;;;;;;0.10;0.10;;;;;;;;;;5071377;28;20681;-92
2022/08/09 13:26:31;;;;;;;0.00;0.00;;;;;;;;;;5058543;28;20474;-88
2022/08/09 13:29:05;;;;;;;0.10;0.10;;;;;;;;;;5061180;28;20040;-88
2022/08/09 13:31:31;;;;;;;0.10;0.10;;;;;;;;;;5064737;28;20044;-88
2022/08/09 13:33:58;;;;;;;0.03;0.03;;;;;;;;;;5055900;28;20044;-89
2022/08/09 13:36:24;;;;;;;0.05;0.05;;;;;;;;;;5053408;28;20038;-86
2022/08/09 13:38:50;;;;;;;0.10;0.10;;;;;;;;;;5055298;28;20383;-89
2022/08/09 13:41:20;;;;;;;0.17;0.17;;;;;;;;;;5049634;28;20042;-87
2022/08/09 13:43:46;;;;;;;0.10;0.10;;;;;;;;;;5061411;28;20051;-86
2022/08/09 13:46:13;;;;;;;0.10;0.10;;;;;;;;;;5054193;28;20032;-89
2022/08/09 13:48:39;;;;;;;0.00;0.00;;;;;;;;;;5056780;28;20063;-87
2022/08/09 13:51:05;;;;;;;0.00;0.00;;;;;;;;;;5051822;28;20446;-89
2022/08/09 13:53:31;;;;;;;0.10;0.10;;;;;;;;;;5050126;28;20047;-88
2022/08/09 13:55:57;;;;;;;0.00;0.00;;;;;;;;;;5061324;28;20036;-88
2022/08/09 13:58:23;;;;;;;0.20;0.20;;;;;;;;;;5063006;28;20044;-86
2022/08/09 14:00:49;;;;;;;0.00;0.00;;;;;;;;;;5061709;28;20036;-86
2022/08/09 14:03:15;;;;;;;0.10;0.10;;;;;;;;;;5066090;28;20401;-90
2022/08/09 14:05:41;;;;;;;0.00;0.00;;;;;;;;;;5064675;28;20036;-88
2022/08/09 14:08:07;;;;;;;0.00;0.00;;;;;;;;;;5060473;28;20043;-90
2022/08/09 14:10:33;;;;;;;0.10;0.10;;;;;;;;;;5053309;28;20078;-88
2022/08/09 14:13:02;;;;;;;0.03;0.03;;;;;;;;;;5071888;28;20400;-92
2022/08/09 14:15:28;;;;;;;0.03;0.03;;;;;;;;;;5067213;28;20122;-93
2022/08/09 14:17:54;;;;;;;0.05;0.05;;;;;;;;;;5066010;28;20493;-95
2022/08/09 14:20:21;;;;;;;0.10;0.10;;;;;;;;;;5061761;28;20044;-94
2022/08/09 14:23:03;;;;;;;0.00;0.00;;;;;;;;;;5059387;28;20116;-93
2022/08/09 14:25:34;;;;;;;0.00;0.00;;;;;;;;;;5065575;28;20032;-92
2022/08/09 14:28:00;;;;;;;0.10;0.10;;;;;;;;;;5065770;28;20035;-92
2022/08/09 14:30:26;;;;;;;0.10;0.10;;;;;;;;;;5066080;28;20109;-92
2022/08/09 14:32:55;;;;;;;0.10;0.10;;;;;;;;;;5054605;28;20076;-94
2022/08/09 14:35:24;;;;;;;0.10;0.10;;;;;;;;;;5061376;28;20040;-93
2022/08/09 14:37:50;;;;;;;0.05;0.05;;;;;;;;;;5068530;28;21362;-92
2022/08/09 14:40:16;;;;;;;0.10;0.10;;;;;;;;;;5062784;28;20105;-93
2022/08/09 14:42:46;;;;;;;0.08;0.08;;;;;;;;;;5075103;28;20047;-92
2022/08/09 14:45:14;;;;;;;0.10;0.10;;;;;;;;;;5060090;28;20091;-93
2022/08/09 14:47:40;;;;;;;0.10;0.10;;;;;;;;;;5059067;28;20035;-90
2022/08/09 14:50:07;;;;;;;0.10;0.10;;;;;;;;;;5064252;28;20068;-90
2022/08/09 14:52:33;;;;;;;0.10;0.10;;;;;;;;;;5062683;28;20048;-87